createdAt,value
2022-10-24T00:03:50.437Z,5.83
2022-10-24T00:08:53.058Z,4.88
2022-10-24T00:13:57.268Z,3.45
2022-10-24T00:18:59.750Z,3.90
2022-10-24T00:24:02.196Z,4.70
2022-10-24T00:29:05.179Z,3.97
2022-10-24T00:34:07.636Z,2.58
2022-10-24T00:39:11.205Z,2.78
2022-10-24T00:44:16.854Z,2.63
2022-10-24T00:49:23.457Z,3.50
2022-10-24T00:54:25.933Z,3.77
2022-10-24T00:59:28.900Z,3.75
2022-10-24T01:04:31.346Z,3.55
2022-10-24T01:09:55.438Z,4.37
2022-10-24T01:15:12.686Z,4.60
2022-10-24T01:20:39.473Z,3.73
2022-10-24T01:26:27.563Z,4.68
2022-10-24T01:31:40.043Z,3.55
2022-10-24T01:37:02.088Z,4.70
2022-10-24T01:42:05.906Z,4.85
2022-10-24T01:47:16.867Z,6.27
2022-10-24T01:52:20.306Z,4.82
2022-10-24T01:57:28.532Z,3.65
2022-10-24T02:02:40.492Z,5.13
2022-10-24T02:07:45.340Z,5.50
2022-10-24T02:12:51.265Z,5.97
2022-10-24T02:17:54.325Z,5.40
2022-10-24T02:23:15.585Z,5.65
2022-10-24T02:28:25.082Z,5.60
2022-10-24T02:33:29.538Z,5.93
2022-10-24T02:38:34.897Z,4.73
2022-10-24T02:43:38.895Z,6.00
2022-10-24T02:48:44.564Z,6.60
2022-10-24T02:53:47.769Z,4.20
2022-10-24T02:58:50.221Z,6.28
2022-10-24T03:03:52.755Z,3.33
2022-10-24T03:08:55.229Z,6.07
2022-10-24T03:13:57.787Z,4.93
2022-10-24T03:19:00.346Z,5.57
2022-10-24T03:24:02.814Z,5.00
2022-10-24T03:29:05.736Z,4.80
2022-10-24T03:34:08.254Z,5.82
2022-10-24T03:39:10.948Z,4.57
2022-10-24T03:44:13.725Z,6.17
2022-10-24T03:49:16.153Z,5.97
2022-10-24T03:54:18.653Z,5.53
2022-10-24T03:59:21.084Z,4.25
2022-10-24T04:04:23.570Z,3.00
2022-10-24T04:09:26.622Z,5.13
2022-10-24T04:14:29.083Z,5.72
2022-10-24T04:19:31.580Z,5.33
2022-10-24T04:24:34.279Z,4.90
2022-10-24T04:29:37.264Z,5.45
2022-10-24T04:34:39.747Z,2.57
2022-10-24T04:39:42.164Z,4.93
2022-10-24T04:44:44.588Z,5.00
2022-10-24T04:49:47.062Z,4.97
2022-10-24T04:54:49.785Z,5.60
2022-10-24T04:59:52.188Z,5.10
2022-10-24T05:04:54.646Z,4.10
2022-10-24T05:09:57.108Z,4.30
2022-10-24T05:14:59.617Z,3.90
2022-10-24T05:20:02.352Z,5.20
2022-10-24T05:25:05.497Z,3.60
2022-10-24T05:30:08.553Z,5.07
2022-10-24T05:35:11.885Z,4.77
2022-10-24T05:40:14.768Z,5.38
2022-10-24T05:45:17.220Z,5.00
2022-10-24T05:50:19.764Z,4.67
2022-10-24T05:55:22.214Z,5.60
2022-10-24T06:00:24.676Z,5.67
2022-10-24T06:05:27.207Z,5.00
2022-10-24T06:10:29.721Z,6.75
2022-10-24T06:15:32.177Z,6.43
2022-10-24T06:20:34.601Z,7.50
2022-10-24T06:25:37.280Z,8.37
2022-10-24T06:30:40.933Z,6.65
2022-10-24T06:35:43.453Z,7.60
2022-10-24T06:40:45.973Z,6.70
2022-10-24T06:45:48.510Z,7.05
2022-10-24T06:50:50.963Z,8.02
2022-10-24T06:55:53.452Z,7.23
2022-10-24T07:00:55.883Z,7.05
2022-10-24T07:05:58.390Z,6.73
2022-10-24T07:11:01.274Z,6.43
2022-10-24T07:16:03.955Z,6.78
2022-10-24T07:21:08.798Z,6.93
2022-10-24T07:26:14.948Z,5.90
2022-10-24T07:31:18.895Z,8.05
2022-10-24T07:36:23.816Z,6.50
2022-10-24T07:41:27.915Z,6.57
2022-10-24T07:46:31.245Z,6.65
2022-10-24T07:51:33.692Z,5.67
2022-10-24T07:56:36.503Z,5.75
2022-10-24T08:01:39.008Z,6.10
2022-10-24T08:06:42.880Z,5.57
2022-10-24T08:11:45.332Z,6.25
2022-10-24T08:16:47.771Z,6.38
2022-10-24T08:21:52.532Z,5.70
2022-10-24T08:26:58.021Z,5.30
2022-10-24T08:32:01.211Z,5.53
2022-10-24T08:37:04.669Z,5.70
2022-10-24T08:42:11.598Z,6.57
2022-10-24T08:47:48.689Z,6.47
2022-10-24T08:53:20.150Z,5.20
2022-10-24T08:58:25.735Z,6.05
2022-10-24T09:03:55.452Z,5.88
2022-10-24T09:09:13.049Z,5.63
2022-10-24T09:14:19.816Z,6.93
2022-10-24T09:19:24.261Z,5.90
2022-10-24T09:24:43.182Z,6.23
2022-10-24T09:29:45.936Z,6.28
2022-10-24T09:34:49.292Z,5.68
2022-10-24T09:40:07.631Z,5.80
2022-10-24T09:45:42.248Z,5.38
2022-10-24T09:50:45.952Z,6.20
2022-10-24T09:55:53.125Z,6.07
2022-10-24T10:01:07.784Z,7.53
2022-10-24T10:06:20.793Z,7.57
2022-10-24T10:11:35.458Z,6.40
2022-10-24T10:16:40.368Z,5.73
2022-10-24T10:22:03.502Z,5.70
2022-10-24T10:27:41.322Z,5.25
2022-10-24T10:32:43.862Z,6.33
2022-10-24T10:38:12.495Z,5.72
2022-10-24T10:43:37.205Z,5.10
2022-10-24T10:48:55.843Z,4.70
2022-10-24T10:54:21.597Z,4.75
2022-10-24T10:59:32.389Z,4.18
2022-10-24T11:04:51.677Z,4.87
2022-10-24T11:10:01.660Z,4.53
2022-10-24T11:15:32.808Z,5.13
2022-10-24T11:20:48.256Z,5.78
2022-10-24T11:26:07.933Z,4.80
2022-10-24T11:31:17.721Z,3.63
2022-10-24T11:36:39.491Z,5.50
2022-10-24T11:41:53.834Z,6.47
2022-10-24T11:47:25.695Z,5.05
2022-10-24T11:52:31.686Z,4.18
2022-10-24T11:57:34.993Z,3.70
2022-10-24T12:02:40.211Z,12.40
2022-10-24T12:08:32.981Z,4.78
2022-10-24T12:13:53.992Z,4.00
2022-10-24T12:19:04.603Z,4.00
2022-10-24T12:24:16.037Z,4.13
2022-10-24T12:29:26.449Z,4.28
2022-10-24T12:34:29.082Z,3.83
2022-10-24T12:39:36.941Z,4.65
2022-10-24T12:44:41.620Z,4.22
2022-10-24T12:49:45.960Z,4.30
2022-10-24T12:54:50.191Z,4.43
2022-10-24T13:00:18.111Z,4.18
2022-10-24T13:05:40.645Z,4.35
2022-10-24T13:10:51.645Z,4.07
2022-10-24T13:15:54.064Z,3.60
2022-10-24T13:21:26.063Z,3.28
2022-10-24T13:26:44.265Z,4.77
2022-10-24T13:31:54.852Z,3.45
2022-10-24T13:37:30.584Z,3.95
2022-10-24T13:42:42.847Z,4.70
2022-10-24T13:47:48.926Z,4.00
2022-10-24T13:53:30.323Z,4.63
2022-10-24T13:58:44.176Z,5.30
2022-10-24T14:03:48.731Z,4.70
2022-10-24T14:09:05.564Z,4.20
2022-10-24T14:14:19.869Z,5.18
2022-10-24T14:19:29.659Z,4.53
2022-10-24T14:24:34.165Z,6.88
2022-10-24T14:29:37.074Z,6.18
2022-10-24T14:34:39.813Z,5.83
2022-10-24T14:39:42.560Z,5.70
2022-10-24T14:44:46.878Z,7.50
2022-10-24T14:49:49.432Z,6.35
2022-10-24T14:54:58.852Z,7.53
2022-10-24T15:00:07.623Z,7.20
2022-10-24T15:05:24.829Z,7.97
2022-10-24T15:10:36.545Z,8.27
2022-10-24T15:15:44.982Z,9.27
2022-10-24T15:20:49.301Z,9.25
2022-10-24T15:26:15.185Z,8.10
2022-10-24T15:31:19.270Z,8.27
2022-10-24T15:36:24.467Z,8.65
2022-10-24T15:41:27.499Z,8.93
2022-10-24T15:46:30.531Z,8.70
2022-10-24T15:51:32.980Z,8.00
2022-10-24T15:56:35.473Z,7.85
2022-10-24T16:01:56.515Z,6.07
2022-10-24T16:06:59.163Z,5.63
2022-10-24T16:12:01.707Z,6.15
2022-10-24T16:17:04.155Z,13.30
2022-10-24T16:22:08.632Z,5.73
2022-10-24T16:27:11.111Z,5.80
2022-10-24T16:32:13.682Z,5.28
2022-10-24T16:37:18.868Z,4.57
2022-10-24T16:42:22.506Z,6.45
2022-10-24T16:47:25.447Z,6.97
2022-10-24T16:52:28.581Z,5.23
2022-10-24T16:57:31.473Z,4.75
2022-10-24T17:02:33.909Z,7.30
2022-10-24T17:07:36.708Z,8.97
2022-10-24T17:12:42.982Z,11.40
2022-10-24T17:17:46.023Z,18.03
2022-10-24T17:22:48.850Z,10.30
2022-10-24T17:27:52.980Z,8.43
2022-10-24T17:32:55.588Z,9.82
2022-10-24T17:37:58.048Z,3.93
2022-10-24T17:43:04.764Z,2.20
2022-10-24T17:48:07.467Z,5.17
2022-10-24T17:53:13.064Z,4.50
2022-10-24T17:58:16.197Z,4.93
2022-10-24T18:03:19.560Z,4.10
2022-10-24T18:08:22.013Z,5.53
2022-10-24T18:13:24.418Z,4.50
2022-10-24T18:18:26.892Z,4.60
2022-10-24T18:23:30.870Z,5.57
2022-10-24T18:28:36.168Z,8.88
2022-10-24T18:33:39.275Z,7.43
2022-10-24T18:38:41.969Z,10.73
2022-10-24T18:43:44.627Z,11.98
2022-10-24T18:48:47.685Z,6.43
2022-10-24T18:53:50.273Z,5.20
2022-10-24T18:58:57.285Z,6.85
2022-10-24T19:04:00.553Z,6.27
2022-10-24T19:09:03.113Z,6.83
2022-10-24T19:14:06.977Z,8.18
2022-10-24T19:19:10.215Z,8.27
2022-10-24T19:24:12.652Z,9.70
2022-10-24T19:29:15.344Z,8.73
2022-10-24T19:34:17.850Z,7.50
2022-10-24T19:39:20.398Z,9.47
2022-10-24T19:44:22.934Z,9.50
2022-10-24T19:49:25.396Z,9.87
2022-10-24T19:54:27.982Z,12.82
2022-10-24T19:59:33.982Z,10.02
2022-10-24T20:04:40.153Z,10.70
2022-10-24T20:09:42.901Z,10.60
2022-10-24T20:14:45.362Z,9.00
2022-10-24T20:19:47.819Z,12.23
2022-10-24T20:24:50.421Z,12.75
2022-10-24T20:29:52.969Z,12.57
2022-10-24T20:34:55.394Z,9.17
2022-10-24T20:39:57.840Z,11.48
2022-10-24T20:45:00.265Z,10.30
2022-10-24T20:50:02.757Z,8.30
2022-10-24T20:55:14.692Z,9.63
2022-10-24T21:00:27.785Z,10.23
2022-10-24T21:05:30.229Z,10.95
2022-10-24T21:10:32.679Z,9.20
2022-10-24T21:15:35.106Z,12.80
2022-10-24T21:20:37.663Z,9.60
2022-10-24T21:25:40.126Z,17.97
2022-10-24T21:30:42.624Z,16.35
2022-10-24T21:35:45.061Z,10.98
2022-10-24T21:40:48.968Z,10.90
2022-10-24T21:45:51.910Z,9.70
2022-10-24T21:50:54.365Z,7.60
2022-10-24T21:56:07.064Z,8.63
2022-10-24T22:01:12.908Z,6.50
2022-10-24T22:06:17.472Z,4.93
2022-10-24T22:11:25.711Z,5.13
2022-10-24T22:16:30.261Z,4.50
2022-10-24T22:21:51.719Z,4.13
2022-10-24T22:26:54.246Z,5.03
2022-10-24T22:31:57.125Z,4.33
2022-10-24T22:37:06.175Z,5.65
2022-10-24T22:42:14.911Z,5.20
2022-10-24T22:47:44.966Z,6.77
2022-10-24T22:52:49.000Z,5.05
2022-10-24T22:57:54.483Z,6.53
2022-10-24T23:03:19.357Z,7.57
2022-10-24T23:08:43.960Z,6.18
2022-10-24T23:13:47.341Z,7.10
2022-10-24T23:18:50.118Z,7.53
2022-10-24T23:23:52.861Z,6.72
2022-10-24T23:29:07.563Z,6.10
2022-10-24T23:34:10.823Z,6.93
2022-10-24T23:39:14.117Z,6.83
2022-10-24T23:44:16.816Z,5.38
2022-10-24T23:49:40.149Z,4.95
2022-10-24T23:54:42.875Z,5.03
2022-10-24T23:59:45.645Z,3.97
